createdAt,value
2022-11-05T00:02:03.116Z,88.60
2022-11-05T00:04:51.009Z,88.64
2022-11-05T00:07:44.432Z,88.54
2022-11-05T00:10:30.300Z,88.59
2022-11-05T00:13:18.933Z,88.40
2022-11-05T00:16:05.537Z,88.43
2022-11-05T00:18:33.490Z,88.22
2022-11-05T00:21:01.609Z,88.18
2022-11-05T00:23:48.629Z,88.06
2022-11-05T00:26:17.154Z,88.05
2022-11-05T00:28:45.171Z,88.11
2022-11-05T00:31:14.466Z,88.11
2022-11-05T00:33:43.173Z,88.19
2022-11-05T00:36:11.831Z,88.03
2022-11-05T00:38:39.829Z,88.09
2022-11-05T00:41:08.139Z,88.14
2022-11-05T00:43:54.832Z,87.91
2022-11-05T00:46:23.492Z,87.74
2022-11-05T00:49:10.216Z,87.79
2022-11-05T00:51:38.147Z,87.54
2022-11-05T00:54:06.248Z,87.40
2022-11-05T00:56:34.327Z,87.32
2022-11-05T00:59:02.328Z,87.39
2022-11-05T01:01:30.484Z,87.25
2022-11-05T01:03:58.814Z,87.32
2022-11-05T01:06:26.770Z,87.18
2022-11-05T01:08:56.360Z,87.26
2022-11-05T01:11:33.744Z,87.34
2022-11-05T01:14:05.263Z,87.34
2022-11-05T01:16:33.792Z,87.14
2022-11-05T01:19:02.344Z,87.07
2022-11-05T01:21:31.188Z,87.09
2022-11-05T01:23:59.388Z,87.18
2022-11-05T01:26:28.111Z,87.08
2022-11-05T01:29:00.641Z,86.97
2022-11-05T01:31:29.255Z,86.97
2022-11-05T01:33:57.575Z,87.00
2022-11-05T01:36:25.532Z,87.06
2022-11-05T01:38:54.542Z,87.09
2022-11-05T01:41:22.746Z,87.16
2022-11-05T01:44:08.805Z,87.21
2022-11-05T01:46:47.622Z,87.00
2022-11-05T01:49:31.916Z,87.26
2022-11-05T01:52:04.239Z,87.19
2022-11-05T01:54:35.068Z,87.05
2022-11-05T01:57:08.978Z,87.09
2022-11-05T01:59:46.340Z,87.21
2022-11-05T02:02:15.882Z,87.39
2022-11-05T02:04:55.113Z,87.26
2022-11-05T02:07:26.941Z,87.34
2022-11-05T02:10:14.287Z,87.38
2022-11-05T02:12:45.858Z,87.37
2022-11-05T02:15:23.894Z,87.48
2022-11-05T02:18:11.992Z,87.51
2022-11-05T02:20:52.357Z,87.35
2022-11-05T02:23:56.253Z,87.24
2022-11-05T02:26:46.371Z,87.25
2022-11-05T02:29:39.533Z,87.16
2022-11-05T02:32:17.637Z,87.15
2022-11-05T02:35:15.941Z,86.90
2022-11-05T02:37:55.875Z,86.93
2022-11-05T02:40:33.717Z,87.01
2022-11-05T02:43:08.250Z,86.85
2022-11-05T02:46:02.926Z,86.66
2022-11-05T02:48:57.022Z,86.78
2022-11-05T02:51:53.295Z,86.87
2022-11-05T02:54:28.606Z,86.67
2022-11-05T02:56:59.304Z,86.63
2022-11-05T02:59:27.290Z,86.75
2022-11-05T03:01:57.301Z,86.76
2022-11-05T03:04:26.735Z,86.77
2022-11-05T03:07:19.958Z,86.82
2022-11-05T03:10:06.025Z,86.84
2022-11-05T03:12:51.263Z,86.74
2022-11-05T03:15:37.736Z,86.90
2022-11-05T03:18:25.800Z,86.70
2022-11-05T03:21:46.599Z,86.70
2022-11-05T03:24:31.706Z,86.67
2022-11-05T03:27:08.146Z,86.75
2022-11-05T03:29:42.923Z,86.79
2022-11-05T03:32:12.618Z,86.72
2022-11-05T03:34:46.233Z,86.86
2022-11-05T03:37:15.771Z,86.91
2022-11-05T03:39:48.899Z,86.81
2022-11-05T03:42:21.165Z,86.77
2022-11-05T03:44:54.904Z,86.82
2022-11-05T03:47:29.840Z,86.81
2022-11-05T03:50:18.289Z,86.89
2022-11-05T03:52:55.170Z,86.67
2022-11-05T03:55:36.363Z,86.73
2022-11-05T03:58:05.706Z,86.80
2022-11-05T04:00:33.912Z,86.74
2022-11-05T04:03:02.701Z,86.80
2022-11-05T04:05:31.262Z,86.87
2022-11-05T04:08:18.120Z,86.85
2022-11-05T04:11:04.950Z,86.73
2022-11-05T04:13:37.521Z,86.93
2022-11-05T04:16:24.667Z,86.97
2022-11-05T04:18:52.620Z,86.74
2022-11-05T04:21:39.343Z,86.87
2022-11-05T04:24:10.969Z,86.89
2022-11-05T04:26:41.921Z,86.94
2022-11-05T04:29:29.450Z,86.72
2022-11-05T04:31:57.824Z,86.82
2022-11-05T04:34:26.811Z,86.82
2022-11-05T04:36:55.123Z,86.62
2022-11-05T04:39:24.243Z,86.72
2022-11-05T04:41:52.391Z,86.74
2022-11-05T04:44:20.562Z,86.67
2022-11-05T04:46:49.183Z,86.64
2022-11-05T04:49:20.216Z,86.51
2022-11-05T04:51:48.166Z,86.53
2022-11-05T04:54:16.083Z,86.55
2022-11-05T04:56:44.039Z,86.52
2022-11-05T04:59:12.066Z,86.46
2022-11-05T05:01:41.023Z,86.46
2022-11-05T05:04:09.210Z,86.62
2022-11-05T05:06:38.568Z,86.62
2022-11-05T05:09:06.701Z,86.67
2022-11-05T05:11:34.623Z,86.56
2022-11-05T05:14:02.614Z,86.59
2022-11-05T05:16:31.752Z,86.34
2022-11-05T05:19:00.209Z,86.27
2022-11-05T05:21:40.646Z,86.26
2022-11-05T05:24:12.097Z,86.26
2022-11-05T05:26:43.498Z,86.14
2022-11-05T05:29:11.948Z,86.14
2022-11-05T05:31:42.044Z,86.08
2022-11-05T05:34:14.943Z,85.97
2022-11-05T05:36:43.190Z,85.99
2022-11-05T05:39:11.495Z,85.93
2022-11-05T05:41:41.256Z,85.86
2022-11-05T05:44:09.317Z,85.93
2022-11-05T05:46:37.686Z,85.88
2022-11-05T05:49:12.482Z,85.76
2022-11-05T05:51:41.287Z,86.00
2022-11-05T05:54:12.351Z,86.12
2022-11-05T05:56:43.681Z,86.18
2022-11-05T05:59:15.916Z,86.20
2022-11-05T06:01:45.370Z,86.24
2022-11-05T06:04:14.591Z,86.20
2022-11-05T06:06:45.406Z,86.29
2022-11-05T06:09:17.006Z,86.18
2022-11-05T06:11:45.712Z,86.34
2022-11-05T06:14:19.324Z,86.47
2022-11-05T06:16:49.499Z,86.41
2022-11-05T06:19:18.246Z,86.44
2022-11-05T06:21:47.863Z,86.57
2022-11-05T06:24:18.737Z,86.50
2022-11-05T06:26:50.826Z,86.55
2022-11-05T06:29:19.586Z,86.57
2022-11-05T06:31:48.248Z,86.63
2022-11-05T06:34:41.334Z,86.58
2022-11-05T06:37:10.221Z,86.63
2022-11-05T06:39:38.539Z,86.67
2022-11-05T06:42:22.598Z,86.79
2022-11-05T06:44:57.251Z,86.64
2022-11-05T06:47:27.309Z,86.84
2022-11-05T06:49:57.532Z,86.88
2022-11-05T06:52:27.349Z,86.91
2022-11-05T06:54:55.376Z,86.87
2022-11-05T06:57:25.276Z,86.92
2022-11-05T06:59:59.957Z,87.06
2022-11-05T07:02:33.616Z,87.22
2022-11-05T07:05:02.358Z,87.12
2022-11-05T07:07:32.527Z,87.16
2022-11-05T07:10:02.155Z,87.19
2022-11-05T07:12:32.698Z,87.30
2022-11-05T07:15:01.142Z,87.49
2022-11-05T07:17:32.998Z,87.46
2022-11-05T07:20:01.877Z,87.59
2022-11-05T07:22:30.064Z,87.65
2022-11-05T07:24:58.867Z,87.55
2022-11-05T07:27:29.255Z,87.35
2022-11-05T07:29:59.121Z,87.36
2022-11-05T07:32:28.465Z,87.48
2022-11-05T07:35:02.294Z,87.56
2022-11-05T07:37:31.053Z,87.52
2022-11-05T07:39:59.223Z,87.79
2022-11-05T07:42:28.644Z,87.73
2022-11-05T07:44:57.345Z,87.68
2022-11-05T07:47:25.748Z,87.83
2022-11-05T07:52:39.300Z,87.55
2022-11-05T07:55:14.387Z,87.49
2022-11-05T07:57:51.137Z,87.53
2022-11-05T08:00:22.450Z,87.33
2022-11-05T08:03:07.872Z,87.50
2022-11-05T08:05:41.127Z,87.68
2022-11-05T08:08:13.040Z,87.75
2022-11-05T08:10:42.258Z,87.72
2022-11-05T08:13:11.546Z,87.73
2022-11-05T08:15:43.165Z,87.79
2022-11-05T08:18:14.739Z,87.68
2022-11-05T08:20:44.818Z,87.60
2022-11-05T08:23:14.620Z,87.73
2022-11-05T08:25:43.836Z,87.70
2022-11-05T08:28:14.875Z,87.66
2022-11-05T08:30:43.883Z,87.68
2022-11-05T08:33:13.713Z,87.74
2022-11-05T08:35:43.090Z,87.58
2022-11-05T08:38:15.981Z,87.54
2022-11-05T08:40:46.740Z,87.51
2022-11-05T08:43:15.148Z,87.68
2022-11-05T08:45:44.242Z,87.53
2022-11-05T08:48:15.223Z,87.19
2022-11-05T08:50:47.808Z,86.94
2022-11-05T08:53:18.409Z,87.02
2022-11-05T08:55:50.834Z,87.01
2022-11-05T08:58:21.002Z,86.92
2022-11-05T09:00:51.737Z,86.89
2022-11-05T09:03:20.346Z,86.49
2022-11-05T09:05:51.672Z,86.71
2022-11-05T09:08:22.232Z,86.91
2022-11-05T09:10:52.944Z,86.75
2022-11-05T09:13:23.516Z,86.55
2022-11-05T09:15:54.452Z,86.45
2022-11-05T09:18:39.213Z,86.01
2022-11-05T09:21:08.552Z,86.21
2022-11-05T09:23:43.802Z,86.45
2022-11-05T09:26:13.448Z,86.13
2022-11-05T09:28:43.920Z,86.12
2022-11-05T09:31:12.775Z,86.22
2022-11-05T09:33:42.636Z,85.86
2022-11-05T09:36:12.040Z,85.19
2022-11-05T09:38:40.548Z,85.29
2022-11-05T09:41:28.168Z,85.38
2022-11-05T09:44:19.188Z,85.17
2022-11-05T09:47:01.867Z,85.02
2022-11-05T09:49:48.230Z,85.19
2022-11-05T09:52:51.890Z,84.61
2022-11-05T09:55:46.540Z,84.57
2022-11-05T09:58:37.044Z,84.79
2022-11-05T10:01:14.841Z,84.68
2022-11-05T10:03:50.189Z,84.65
2022-11-05T10:06:26.027Z,84.72
2022-11-05T10:09:09.709Z,84.36
2022-11-05T10:12:01.745Z,84.56
2022-11-05T10:14:39.665Z,84.45
2022-11-05T10:17:13.813Z,84.28
2022-11-05T10:19:51.928Z,84.04
2022-11-05T10:22:21.306Z,83.72
2022-11-05T10:24:54.101Z,83.62
2022-11-05T10:27:33.310Z,83.78
2022-11-05T10:30:02.465Z,83.62
2022-11-05T10:32:38.065Z,83.57
2022-11-05T10:35:13.415Z,83.58
2022-11-05T10:37:43.380Z,83.81
2022-11-05T10:40:20.323Z,83.93
2022-11-05T10:43:03.465Z,84.03
2022-11-05T10:46:13.014Z,83.61
2022-11-05T10:49:00.422Z,83.38
2022-11-05T10:51:31.749Z,83.24
2022-11-05T10:54:24.605Z,83.09
2022-11-05T10:56:55.367Z,82.63
2022-11-05T10:59:30.345Z,82.38
2022-11-05T11:02:14.552Z,82.25
2022-11-05T11:04:52.838Z,82.54
2022-11-05T11:07:25.756Z,82.55
2022-11-05T11:09:54.269Z,82.38
2022-11-05T11:12:29.243Z,82.36
2022-11-05T11:15:23.766Z,82.39
2022-11-05T11:17:53.087Z,82.22
2022-11-05T11:20:35.197Z,82.25
2022-11-05T11:23:03.213Z,81.82
2022-11-05T11:25:38.926Z,81.74
2022-11-05T11:28:15.540Z,81.12
2022-11-05T11:30:50.274Z,81.13
2022-11-05T11:33:23.325Z,80.73
2022-11-05T11:35:52.926Z,80.78
2022-11-05T11:38:25.875Z,80.77
2022-11-05T11:41:05.036Z,80.83
2022-11-05T11:43:37.574Z,80.08
2022-11-05T11:46:15.253Z,79.85
2022-11-05T11:48:47.832Z,79.94
2022-11-05T11:51:33.028Z,80.08
2022-11-05T11:54:02.892Z,79.67
2022-11-05T11:56:44.428Z,79.51
2022-11-05T11:59:46.777Z,79.88
2022-11-05T12:02:35.307Z,79.56
2022-11-05T12:05:09.287Z,79.03
2022-11-05T12:07:51.600Z,78.84
2022-11-05T12:10:46.846Z,78.74
2022-11-05T12:13:25.519Z,78.73
2022-11-05T12:15:57.341Z,78.70
2022-11-05T12:19:22.660Z,78.76
2022-11-05T12:22:22.065Z,78.78
2022-11-05T12:24:57.040Z,78.28
2022-11-05T12:27:50.079Z,77.89
2022-11-05T12:30:22.020Z,77.56
2022-11-05T12:33:16.064Z,77.61
2022-11-05T12:36:07.163Z,77.44
2022-11-05T12:39:00.101Z,77.45
2022-11-05T12:41:48.941Z,76.77
2022-11-05T12:44:43.246Z,76.63
2022-11-05T12:47:33.862Z,76.62
2022-11-05T12:50:21.406Z,76.50
2022-11-05T12:52:56.121Z,76.40
2022-11-05T12:55:27.724Z,76.43
2022-11-05T12:58:23.381Z,76.13
2022-11-05T13:00:59.475Z,76.18
2022-11-05T13:03:41.501Z,76.11
2022-11-05T13:06:15.070Z,76.55
2022-11-05T13:09:02.597Z,76.23
2022-11-05T13:11:36.041Z,75.91
2022-11-05T13:14:14.553Z,75.95
2022-11-05T13:16:49.853Z,75.25
2022-11-05T13:19:22.488Z,75.19
2022-11-05T13:21:58.262Z,75.39
2022-11-05T13:24:34.689Z,75.27
2022-11-05T13:27:12.359Z,75.31
2022-11-05T13:30:05.226Z,75.19
2022-11-05T13:32:39.486Z,75.38
2022-11-05T13:35:18.486Z,75.29
2022-11-05T13:38:13.278Z,75.32
2022-11-05T13:41:03.763Z,75.27
2022-11-05T13:43:50.443Z,75.39
2022-11-05T13:46:45.308Z,75.23
2022-11-05T13:49:36.329Z,74.93
2022-11-05T13:52:12.468Z,75.01
2022-11-05T13:55:00.366Z,75.00
2022-11-05T13:57:47.440Z,74.58
2022-11-05T14:00:19.864Z,74.39
2022-11-05T14:03:08.685Z,74.36
2022-11-05T14:05:42.323Z,74.23
2022-11-05T14:08:18.516Z,74.37
2022-11-05T14:10:58.725Z,74.35
2022-11-05T14:13:42.625Z,74.25
2022-11-05T14:16:20.249Z,74.40
2022-11-05T14:19:18.490Z,74.41
2022-11-05T14:21:48.581Z,74.19
2022-11-05T14:24:22.706Z,74.40
2022-11-05T14:27:04.734Z,74.31
2022-11-05T14:29:51.380Z,74.22
2022-11-05T14:32:28.876Z,74.10
2022-11-05T14:35:17.155Z,74.18
2022-11-05T14:38:00.029Z,74.37
2022-11-05T14:40:40.876Z,74.54
2022-11-05T14:43:15.111Z,74.28
2022-11-05T14:46:12.655Z,74.29
2022-11-05T14:48:47.698Z,74.37
2022-11-05T14:51:38.607Z,74.25
2022-11-05T14:54:38.529Z,74.18
2022-11-05T14:57:07.467Z,74.32
2022-11-05T14:59:52.867Z,74.29
2022-11-05T15:02:30.119Z,74.23
2022-11-05T15:05:38.196Z,74.27
2022-11-05T15:08:30.681Z,74.23
2022-11-05T15:11:13.829Z,74.15
2022-11-05T15:13:54.104Z,74.17
2022-11-05T15:16:50.397Z,74.37
2022-11-05T15:19:46.556Z,74.36
2022-11-05T15:22:34.945Z,74.41
2022-11-05T15:25:05.965Z,74.39
2022-11-05T15:27:46.078Z,74.55
2022-11-05T15:30:18.012Z,74.46
2022-11-05T15:32:47.504Z,74.60
2022-11-05T15:35:28.118Z,74.69
2022-11-05T15:38:02.103Z,74.60
2022-11-05T15:40:33.324Z,74.69
2022-11-05T15:43:21.771Z,74.82
2022-11-05T15:45:59.219Z,74.81
2022-11-05T15:48:28.799Z,74.89
2022-11-05T15:50:57.770Z,74.99
2022-11-05T15:53:56.148Z,75.01
2022-11-05T15:56:55.953Z,74.97
2022-11-05T15:59:30.028Z,75.01
2022-11-05T16:02:13.622Z,74.99
2022-11-05T16:04:47.704Z,74.99
2022-11-05T16:07:17.092Z,75.13
2022-11-05T16:09:57.831Z,75.03
2022-11-05T16:12:33.363Z,75.26
2022-11-05T16:15:18.447Z,75.25
2022-11-05T16:17:52.421Z,75.25
2022-11-05T16:20:32.786Z,75.21
2022-11-05T16:23:02.568Z,75.46
2022-11-05T16:25:44.218Z,75.47
2022-11-05T16:28:28.056Z,75.62
2022-11-05T16:30:58.768Z,75.54
2022-11-05T16:33:33.829Z,75.48
2022-11-05T16:36:01.953Z,75.56
2022-11-05T16:38:33.426Z,75.68
2022-11-05T16:41:05.170Z,75.87
2022-11-05T16:43:34.755Z,75.81
2022-11-05T16:46:03.487Z,75.82
2022-11-05T16:48:31.447Z,75.91
2022-11-05T16:51:02.412Z,75.94
2022-11-05T16:53:30.866Z,76.06
2022-11-05T16:56:00.153Z,76.18
2022-11-05T16:58:29.204Z,76.36
2022-11-05T17:01:11.493Z,76.42
2022-11-05T17:18:19.302Z,76.50
2022-11-05T17:20:51.120Z,76.77
2022-11-05T17:23:22.890Z,76.87
2022-11-05T17:25:55.993Z,76.92
2022-11-05T17:28:27.070Z,77.06
2022-11-05T17:30:58.152Z,77.06
2022-11-05T17:33:27.086Z,77.06
2022-11-05T17:35:56.499Z,77.26
2022-11-05T17:38:27.840Z,77.39
2022-11-05T17:40:55.885Z,77.49
2022-11-05T17:43:24.750Z,77.59
2022-11-05T17:45:59.990Z,77.57
2022-11-05T17:48:33.050Z,77.59
2022-11-05T17:51:03.674Z,77.63
2022-11-05T17:53:32.412Z,77.74
2022-11-05T17:56:00.994Z,77.68
2022-11-05T17:58:30.901Z,77.78
2022-11-05T18:01:00.123Z,77.72
2022-11-05T18:03:28.344Z,77.83
2022-11-05T18:06:08.111Z,77.92
2022-11-05T18:08:36.712Z,77.92
2022-11-05T18:11:05.937Z,77.87
2022-11-05T18:13:35.588Z,77.97
2022-11-05T18:16:03.773Z,78.16
2022-11-05T18:18:31.893Z,78.22
2022-11-05T18:21:01.179Z,78.16
2022-11-05T18:23:29.480Z,78.31
2022-11-05T18:25:59.817Z,78.30
2022-11-05T18:28:31.373Z,78.29
2022-11-05T18:31:00.955Z,78.35
2022-11-05T18:33:29.127Z,78.30
2022-11-05T18:36:00.094Z,78.30
2022-11-05T18:38:29.571Z,78.31
2022-11-05T18:41:13.225Z,78.58
2022-11-05T18:43:47.795Z,78.51
2022-11-05T18:46:36.366Z,78.53
2022-11-05T18:49:07.786Z,78.67
2022-11-05T18:51:36.520Z,78.82
2022-11-05T18:54:06.064Z,78.64
2022-11-05T18:56:34.769Z,78.57
2022-11-05T18:59:34.583Z,78.84
2022-11-05T19:01:51.430Z,78.86
2022-11-05T19:04:21.122Z,78.74
2022-11-05T19:06:49.835Z,78.65
2022-11-05T19:09:17.923Z,78.77
2022-11-05T19:11:46.231Z,78.84
2022-11-05T19:14:14.290Z,78.85
2022-11-05T19:16:42.400Z,78.97
2022-11-05T19:19:11.373Z,79.02
2022-11-05T19:21:42.898Z,78.96
2022-11-05T19:24:17.586Z,79.15
2022-11-05T19:26:47.669Z,79.02
2022-11-05T19:29:18.715Z,79.17
2022-11-05T19:31:47.142Z,79.22
2022-11-05T19:34:15.672Z,79.26
2022-11-05T19:36:43.833Z,79.26
2022-11-05T19:39:14.968Z,79.27
2022-11-05T19:41:43.937Z,79.38
2022-11-05T19:44:13.425Z,79.31
2022-11-05T19:46:44.178Z,79.50
2022-11-05T19:49:13.614Z,79.46
2022-11-05T19:51:42.615Z,79.56
2022-11-05T19:54:11.947Z,79.65
2022-11-05T19:56:40.249Z,79.63
2022-11-05T19:59:12.316Z,79.72
2022-11-05T20:01:42.938Z,79.64
2022-11-05T20:04:13.216Z,79.80
2022-11-05T20:06:46.309Z,79.82
2022-11-05T20:09:21.554Z,79.88
2022-11-05T20:11:54.975Z,79.94
2022-11-05T20:14:25.095Z,79.97
2022-11-05T20:16:54.752Z,80.07
2022-11-05T20:19:26.203Z,80.04
2022-11-05T20:21:54.268Z,79.96
2022-11-05T20:24:25.281Z,80.13
2022-11-05T20:26:56.471Z,80.08
2022-11-05T20:29:30.608Z,80.26
2022-11-05T20:32:06.474Z,80.24
2022-11-05T20:34:36.299Z,80.36
2022-11-05T20:37:05.254Z,80.35
2022-11-05T20:39:36.642Z,80.37
2022-11-05T20:42:05.963Z,80.40
2022-11-05T20:44:34.103Z,80.43
2022-11-05T20:47:03.464Z,80.55
2022-11-05T20:49:32.121Z,80.45
2022-11-05T20:52:01.431Z,80.57
2022-11-05T20:54:30.999Z,80.60
2022-11-05T20:56:59.895Z,80.51
2022-11-05T20:59:28.802Z,80.63
2022-11-05T21:01:57.418Z,80.46
2022-11-05T21:04:26.167Z,80.14
2022-11-05T21:06:54.791Z,79.87
2022-11-05T21:09:25.550Z,79.73
2022-11-05T21:12:12.347Z,79.57
2022-11-05T21:14:43.035Z,79.60
2022-11-05T21:17:13.022Z,79.67
2022-11-05T21:19:41.549Z,79.66
2022-11-05T21:22:15.262Z,79.69
2022-11-05T21:24:45.272Z,79.70
2022-11-05T21:27:13.597Z,79.62
2022-11-05T21:29:41.620Z,79.65
2022-11-05T21:32:10.106Z,79.62
2022-11-05T21:34:39.129Z,79.62
2022-11-05T21:37:07.726Z,79.66
2022-11-05T21:39:36.124Z,79.67
2022-11-05T21:42:05.168Z,79.79
2022-11-05T21:44:33.764Z,79.81
2022-11-05T21:47:04.588Z,79.93
2022-11-05T21:49:34.590Z,80.07
2022-11-05T21:52:22.113Z,80.23
2022-11-05T21:55:09.063Z,80.19
2022-11-05T21:57:56.264Z,80.53
2022-11-05T22:00:24.378Z,80.64
2022-11-05T22:02:52.722Z,80.47
2022-11-05T22:05:21.389Z,80.65
2022-11-05T22:07:49.996Z,80.87
2022-11-05T22:10:18.379Z,80.73
2022-11-05T22:12:46.677Z,80.75
2022-11-05T22:15:14.845Z,80.76
2022-11-05T22:17:46.999Z,80.62
2022-11-05T22:20:16.400Z,80.74
2022-11-05T22:22:45.208Z,80.61
2022-11-05T22:25:14.465Z,80.72
2022-11-05T22:27:44.149Z,80.65
2022-11-05T22:30:13.587Z,80.59
2022-11-05T22:32:41.727Z,80.45
2022-11-05T22:35:10.117Z,80.33
2022-11-05T22:37:38.338Z,80.42
2022-11-05T22:40:07.037Z,80.43
2022-11-05T22:42:35.084Z,80.43
2022-11-05T22:45:04.011Z,80.41
2022-11-05T22:47:32.105Z,80.24
2022-11-05T22:50:06.008Z,80.38
2022-11-05T22:52:34.176Z,80.30
2022-11-05T22:55:04.768Z,80.45
2022-11-05T22:57:32.844Z,80.39
2022-11-05T23:00:01.259Z,80.49
2022-11-05T23:02:29.925Z,80.62
2022-11-05T23:04:59.102Z,80.55
2022-11-05T23:07:45.857Z,80.70
2022-11-05T23:10:32.593Z,80.84
2022-11-05T23:13:00.484Z,81.07
2022-11-05T23:15:47.115Z,81.09
2022-11-05T23:18:33.888Z,81.40
2022-11-05T23:21:23.191Z,81.56
2022-11-05T23:24:06.951Z,81.47
2022-11-05T23:26:52.929Z,81.77
2022-11-05T23:29:25.490Z,81.77
2022-11-05T23:32:12.921Z,81.78
2022-11-05T23:34:42.072Z,81.71
2022-11-05T23:37:29.461Z,81.73
2022-11-05T23:39:57.520Z,81.81
2022-11-05T23:42:44.875Z,81.89
2022-11-05T23:45:31.678Z,81.84
2022-11-05T23:48:17.336Z,81.85
2022-11-05T23:50:51.045Z,82.08
2022-11-05T23:53:19.808Z,81.84
2022-11-05T23:55:49.412Z,81.79
2022-11-05T23:58:18.610Z,81.81
